createdAt,value
2022-09-18T00:07:32.798Z,244
2022-09-18T00:27:32.810Z,242
2022-09-18T00:47:32.836Z,242
2022-09-18T01:07:32.895Z,242
2022-09-18T01:27:32.942Z,237
2022-09-18T01:47:32.934Z,236
2022-09-18T02:07:32.952Z,229
2022-09-18T02:27:32.765Z,231
2022-09-18T02:47:33.003Z,230
2022-09-18T03:07:33.041Z,227
2022-09-18T03:27:33.046Z,221
2022-09-18T03:47:36.230Z,225
2022-09-18T04:07:32.952Z,223
2022-09-18T04:27:33.156Z,217
2022-09-18T04:47:33.166Z,220
2022-09-18T05:07:33.206Z,219
2022-09-18T05:27:33.230Z,215
2022-09-18T05:47:33.258Z,213
2022-09-18T06:07:33.279Z,212
2022-09-18T06:27:33.098Z,215
2022-09-18T06:47:33.338Z,215
2022-09-18T07:07:33.370Z,214
2022-09-18T07:27:33.388Z,212
2022-09-18T07:47:33.420Z,207
2022-09-18T08:07:33.483Z,213
2022-09-18T08:27:33.466Z,213
2022-09-18T09:27:33.558Z,213
2022-09-18T09:47:33.596Z,213
2022-09-18T10:07:33.612Z,212
2022-09-18T10:27:33.441Z,212
2022-09-18T10:47:33.676Z,214
2022-09-18T11:07:33.725Z,207
2022-09-18T11:27:33.712Z,209
2022-09-18T11:47:33.534Z,208
2022-09-18T12:07:35.510Z,219
2022-09-18T12:27:32.422Z,223
2022-09-18T12:47:33.097Z,224
2022-09-18T13:07:33.102Z,229
2022-09-18T13:27:33.861Z,229
2022-09-18T13:47:33.894Z,236
2022-09-18T14:07:33.888Z,241
2022-09-18T14:27:33.907Z,246
2022-09-18T14:47:33.938Z,250
2022-09-18T15:07:33.974Z,255
2022-09-18T15:27:34.018Z,241
2022-09-18T15:47:34.098Z,256
2022-09-18T16:07:34.148Z,261
2022-09-18T16:27:34.126Z,280
2022-09-18T16:47:34.228Z,313
2022-09-18T17:07:34.186Z,324
2022-09-18T17:27:34.198Z,334
2022-09-18T17:47:34.240Z,326
2022-09-18T18:07:34.277Z,331
2022-09-18T18:27:34.294Z,335
2022-09-18T20:07:34.446Z,417
2022-09-18T20:27:34.485Z,408
2022-09-18T20:47:41.510Z,395
2022-09-18T21:07:34.550Z,391
2022-09-18T21:27:34.576Z,381
2022-09-18T21:47:34.614Z,376
2022-09-18T22:07:34.666Z,372
2022-09-18T22:27:34.679Z,368
2022-09-18T22:47:34.698Z,363
2022-09-18T23:07:34.745Z,359
2022-09-18T23:27:34.763Z,347
2022-09-18T23:47:34.795Z,338
